Terminal Aerodrome Forecast
Issued by NWS

Home | Current Version | Previous Version | Text Only | Print | Product List | Glossary On
Versions: 1 2 3 4 5 6 7 8 9 10 11 12 13 14 15 16 17 18 19 20 21 22 23 24 25 26 27 28 29 30 31
000
FTUS45 KRIW 271100
TAFPNA
TAF
KPNA 271128Z 2712/2812 29005KT P6SM VCFG FEW004 SCT060
     FM271800 30008KT P6SM SCT060 BKN150
     FM280100 29006KT P6SM BKN050
     FM280800 VRB04KT 3SM -SN OVC020
      AMD LTD TO CLD VIS AND WIND=

USA.gov is the U.S. government's official web portal to all federal, state and local government web resources and services.